Time;durP1;ratioP1;P1;durP2;ratioP2;P2;SDS_P1;SDS_P2;PMS_P1;PMS_P2;Temp;Humidity;BMP_temperature;BMP_pressure;BME280_temperature;BME280_humidity;BME280_pressure;Samples;Min_cycle;Max_cycle;Signal;HPM_P1;HPM_P2
2023/10/08 00:03:10;;;;;;;3.70;3.40;;;;;;;;;;4995004;28;20229;-84
2023/10/08 00:05:36;;;;;;;3.57;3.37;;;;;;;;;;4965311;28;20237;-84
2023/10/08 00:08:02;;;;;;;4.10;3.70;;;;;;;;;;4980860;28;20210;-84
2023/10/08 00:10:40;;;;;;;4.30;3.90;;;;;;;;;;4972885;28;20315;-85
2023/10/08 00:13:09;;;;;;;5.23;3.33;;;;;;;;;;4947307;28;20232;-83
2023/10/08 00:15:36;;;;;;;4.40;4.00;;;;;;;;;;4979715;28;20308;-83
2023/10/08 00:18:07;;;;;;;3.87;3.50;;;;;;;;;;4962903;28;20287;-83
2023/10/08 00:20:49;;;;;;;4.87;3.90;;;;;;;;;;4980387;28;20220;-84
2023/10/08 00:23:19;;;;;;;4.00;3.70;;;;;;;;;;4969651;28;20224;-86
2023/10/08 00:25:47;;;;;;;4.50;3.43;;;;;;;;;;4954065;28;20317;-84
2023/10/08 00:28:17;;;;;;;3.37;3.07;;;;;;;;;;4982983;28;20248;-84
2023/10/08 00:30:45;;;;;;;4.27;3.50;;;;;;;;;;4986376;28;20249;-82
2023/10/08 00:33:13;;;;;;;4.00;3.57;;;;;;;;;;4979473;28;20247;-82
2023/10/08 00:35:41;;;;;;;8.80;3.40;;;;;;;;;;4996469;28;20221;-81
2023/10/08 00:38:20;;;;;;;3.87;3.33;;;;;;;;;;4978151;28;20216;-82
2023/10/08 00:40:50;;;;;;;3.90;3.13;;;;;;;;;;4962702;28;20285;-82
2023/10/08 00:43:35;;;;;;;3.40;3.10;;;;;;;;;;4964413;28;20233;-82
2023/10/08 00:46:04;;;;;;;3.70;3.30;;;;;;;;;;5002990;28;20236;-83
2023/10/08 00:48:35;;;;;;;6.00;3.90;;;;;;;;;;4985016;28;20209;-82
2023/10/08 00:53:49;;;;;;;5.63;4.03;;;;;;;;;;4999691;28;20296;-84
2023/10/08 00:56:19;;;;;;;5.23;4.17;;;;;;;;;;5003428;28;20221;-84
2023/10/08 00:58:52;;;;;;;5.53;4.17;;;;;;;;;;4994314;28;20225;-85
2023/10/08 01:01:21;;;;;;;6.20;4.53;;;;;;;;;;4986421;28;20281;-85
2023/10/08 01:03:49;;;;;;;5.87;4.70;;;;;;;;;;4965417;28;20316;-84
2023/10/08 01:06:29;;;;;;;7.73;5.53;;;;;;;;;;4978016;28;20226;-85
2023/10/08 01:08:57;;;;;;;6.83;4.80;;;;;;;;;;4998353;28;20225;-83
2023/10/08 01:11:45;;;;;;;11.30;5.23;;;;;;;;;;4993609;28;20210;-85
2023/10/08 01:14:11;;;;;;;8.43;5.40;;;;;;;;;;4971265;28;20218;-85
2023/10/08 01:16:36;;;;;;;7.33;5.47;;;;;;;;;;4991586;28;20234;-85
2023/10/08 01:19:02;;;;;;;7.27;5.63;;;;;;;;;;4989458;28;20212;-82
2023/10/08 01:21:39;;;;;;;9.27;5.60;;;;;;;;;;4962876;28;20263;-82
2023/10/08 01:24:07;;;;;;;8.33;5.33;;;;;;;;;;4980173;28;20233;-83
2023/10/08 01:26:39;;;;;;;8.57;5.47;;;;;;;;;;4954767;28;20229;-83
2023/10/08 01:29:09;;;;;;;7.77;5.47;;;;;;;;;;4979610;28;20213;-83
2023/10/08 01:31:40;;;;;;;9.33;5.50;;;;;;;;;;4976096;28;20244;-83
2023/10/08 01:34:07;;;;;;;8.07;5.40;;;;;;;;;;4979109;28;20296;-84
2023/10/08 01:36:35;;;;;;;7.40;5.00;;;;;;;;;;4991897;28;20221;-84
2023/10/08 01:39:10;;;;;;;8.30;5.30;;;;;;;;;;4949237;28;20209;-83
2023/10/08 01:41:40;;;;;;;5.73;4.90;;;;;;;;;;4983996;28;20237;-83
2023/10/08 01:44:08;;;;;;;7.40;5.13;;;;;;;;;;4990446;28;20257;-84
2023/10/08 01:46:36;;;;;;;7.00;5.40;;;;;;;;;;4964940;28;20264;-83
2023/10/08 01:49:15;;;;;;;5.90;4.90;;;;;;;;;;4982266;28;20228;-83
2023/10/08 01:51:47;;;;;;;6.70;4.50;;;;;;;;;;4962680;28;20224;-84
2023/10/08 01:54:14;;;;;;;5.57;4.23;;;;;;;;;;4964979;28;20706;-82
2023/10/08 01:56:42;;;;;;;8.90;4.67;;;;;;;;;;4956070;28;20256;-82
2023/10/08 01:59:13;;;;;;;6.10;4.40;;;;;;;;;;4942185;28;20248;-82
2023/10/08 02:01:40;;;;;;;7.00;4.87;;;;;;;;;;4961500;28;20241;-82
2023/10/08 02:04:10;;;;;;;8.33;4.53;;;;;;;;;;4980105;28;20225;-83
2023/10/08 02:06:39;;;;;;;8.17;4.53;;;;;;;;;;4959148;28;20705;-82
2023/10/08 02:09:09;;;;;;;9.00;4.37;;;;;;;;;;4992877;28;20665;-84
2023/10/08 02:11:53;;;;;;;7.07;4.60;;;;;;;;;;4967083;28;20585;-83
2023/10/08 02:14:22;;;;;;;8.23;4.30;;;;;;;;;;4969297;28;20218;-83
2023/10/08 02:16:56;;;;;;;8.77;4.10;;;;;;;;;;4979715;28;20694;-83
2023/10/08 02:19:27;;;;;;;9.07;4.60;;;;;;;;;;4960661;28;20729;-82
2023/10/08 02:21:55;;;;;;;9.00;4.10;;;;;;;;;;4994570;28;20233;-83
2023/10/08 02:24:23;;;;;;;8.27;3.87;;;;;;;;;;4976730;28;20275;-83
2023/10/08 02:26:56;;;;;;;8.50;3.97;;;;;;;;;;4990207;28;20222;-83
2023/10/08 02:29:26;;;;;;;9.47;3.87;;;;;;;;;;5001131;28;20229;-83
2023/10/08 02:31:54;;;;;;;6.57;3.80;;;;;;;;;;4989455;28;20256;-83
2023/10/08 02:34:22;;;;;;;5.93;3.77;;;;;;;;;;4959708;28;20205;-82
2023/10/08 02:36:48;;;;;;;7.03;4.50;;;;;;;;;;4979489;28;20221;-84
2023/10/08 02:39:25;;;;;;;9.20;4.20;;;;;;;;;;4965489;28;20241;-83
2023/10/08 02:41:51;;;;;;;9.67;4.63;;;;;;;;;;4991763;28;20569;-83
2023/10/08 02:44:20;;;;;;;8.47;4.63;;;;;;;;;;4964093;28;20347;-83
2023/10/08 02:46:49;;;;;;;9.20;4.67;;;;;;;;;;4987718;28;20226;-83
2023/10/08 02:49:22;;;;;;;8.30;4.33;;;;;;;;;;4957387;28;20228;-84
2023/10/08 02:51:53;;;;;;;8.50;4.97;;;;;;;;;;4983500;28;20213;-83
2023/10/08 02:54:33;;;;;;;16.77;5.13;;;;;;;;;;4989102;28;20253;-83
2023/10/08 02:57:09;;;;;;;7.37;5.53;;;;;;;;;;4977707;28;20227;-83
2023/10/08 03:02:18;;;;;;;7.17;5.50;;;;;;;;;;4982180;28;20221;-82
2023/10/08 03:04:51;;;;;;;7.63;6.13;;;;;;;;;;4994755;28;20230;-82
2023/10/08 03:07:33;;;;;;;8.37;6.00;;;;;;;;;;4977707;28;20213;-82
2023/10/08 03:10:17;;;;;;;9.60;6.57;;;;;;;;;;4969229;28;20225;-83
2023/10/08 03:12:47;;;;;;;12.53;7.20;;;;;;;;;;4984115;28;20229;-82
2023/10/08 03:15:27;;;;;;;11.40;6.70;;;;;;;;;;4974720;28;20513;-83
2023/10/08 03:18:09;;;;;;;11.10;6.87;;;;;;;;;;4967699;28;20761;-83
2023/10/08 03:20:46;;;;;;;10.37;6.77;;;;;;;;;;4993994;28;20282;-83
2023/10/08 03:23:16;;;;;;;8.93;6.57;;;;;;;;;;4967896;28;20225;-83
2023/10/08 03:25:47;;;;;;;13.17;7.13;;;;;;;;;;4975733;28;20225;-83
2023/10/08 03:28:16;;;;;;;10.47;6.93;;;;;;;;;;5010361;28;20215;-83
2023/10/08 03:30:49;;;;;;;8.07;6.50;;;;;;;;;;4998436;28;20236;-82
2023/10/08 03:33:21;;;;;;;13.97;6.17;;;;;;;;;;4998561;28;20261;-83
2023/10/08 03:35:49;;;;;;;8.43;6.03;;;;;;;;;;5002071;28;20234;-84
2023/10/08 03:38:21;;;;;;;7.57;6.50;;;;;;;;;;4979341;28;20269;-84
2023/10/08 03:40:50;;;;;;;7.40;5.90;;;;;;;;;;4975339;28;20228;-83
2023/10/08 03:43:24;;;;;;;12.53;6.10;;;;;;;;;;4974305;28;20233;-83
2023/10/08 03:45:59;;;;;;;12.27;5.80;;;;;;;;;;4969171;28;20252;-83
2023/10/08 03:48:36;;;;;;;8.90;5.63;;;;;;;;;;4987202;28;20212;-84
2023/10/08 03:51:11;;;;;;;10.93;6.17;;;;;;;;;;4985392;28;20225;-83
2023/10/08 03:54:47;;;;;;;7.67;5.00;;;;;;;;;;5010898;28;20239;-84
2023/10/08 03:56:37;;;;;;;10.43;6.10;;;;;;;;;;4979203;28;20252;-83
2023/10/08 03:59:12;;;;;;;10.80;5.60;;;;;;;;;;5006082;28;20217;-84
2023/10/08 04:05:32;;;;;;;8.50;5.33;;;;;;;;;;5022266;28;20254;-85
2023/10/08 04:11:08;;;;;;;8.93;5.03;;;;;;;;;;4975557;28;20221;-84
2023/10/08 04:13:24;;;;;;;9.13;5.53;;;;;;;;;;4989708;28;20284;-83
2023/10/08 04:15:52;;;;;;;7.90;4.80;;;;;;;;;;4981179;28;20257;-84
2023/10/08 04:18:20;;;;;;;8.67;5.17;;;;;;;;;;4967843;28;20225;-83
2023/10/08 04:21:04;;;;;;;10.80;4.83;;;;;;;;;;4983499;28;20220;-83
2023/10/08 04:23:32;;;;;;;12.90;4.97;;;;;;;;;;4992279;28;20231;-83
2023/10/08 04:26:00;;;;;;;5.83;4.73;;;;;;;;;;4980376;28;20516;-83
2023/10/08 04:28:28;;;;;;;8.10;5.13;;;;;;;;;;4940393;28;20225;-83
2023/10/08 04:31:00;;;;;;;7.20;4.53;;;;;;;;;;4980292;28;20236;-83
2023/10/08 04:33:33;;;;;;;7.03;4.83;;;;;;;;;;5006067;28;20224;-84
2023/10/08 04:36:01;;;;;;;7.33;4.30;;;;;;;;;;4991812;28;20706;-83
2023/10/08 04:38:31;;;;;;;8.50;4.53;;;;;;;;;;4990226;28;20225;-83
2023/10/08 04:41:01;;;;;;;6.63;4.27;;;;;;;;;;4993113;28;20233;-84
2023/10/08 04:43:30;;;;;;;6.83;3.90;;;;;;;;;;4984027;28;20229;-83
2023/10/08 04:46:04;;;;;;;12.93;4.80;;;;;;;;;;4972871;28;20287;-83
2023/10/08 04:48:33;;;;;;;18.20;7.80;;;;;;;;;;4998421;28;20681;-85
2023/10/08 04:51:01;;;;;;;7.50;4.43;;;;;;;;;;4969602;28;20365;-83
2023/10/08 04:53:51;;;;;;;7.37;4.87;;;;;;;;;;4970278;28;20229;-83
2023/10/08 04:56:22;;;;;;;5.00;4.27;;;;;;;;;;4988123;28;20226;-83
2023/10/08 04:58:49;;;;;;;5.77;4.30;;;;;;;;;;4957331;28;20306;-84
2023/10/08 05:01:38;;;;;;;7.20;4.63;;;;;;;;;;4965922;28;20291;-83
2023/10/08 05:09:12;;;;;;;5.33;4.50;;;;;;;;;;4991447;28;20225;-84
2023/10/08 05:12:08;;;;;;;6.30;4.30;;;;;;;;;;5023250;28;20217;-85
2023/10/08 05:17:09;;;;;;;8.83;4.87;;;;;;;;;;4977679;28;20236;-84
2023/10/08 05:25:10;;;;;;;6.90;4.77;;;;;;;;;;4969213;28;20274;-84
2023/10/08 05:30:25;;;;;;;6.40;4.97;;;;;;;;;;4976697;28;20216;-85
2023/10/08 06:02:48;;;;;;;12.13;5.53;;;;;;;;;;4984812;28;20225;-84
2023/10/08 06:13:13;;;;;;;8.07;6.20;;;;;;;;;;4969951;28;20640;-84
2023/10/08 06:15:49;;;;;;;11.63;6.23;;;;;;;;;;4951942;28;20217;-84
2023/10/08 06:18:25;;;;;;;9.67;5.80;;;;;;;;;;4993857;28;20209;-84
2023/10/08 06:21:01;;;;;;;7.33;5.87;;;;;;;;;;4955235;28;20346;-84
2023/10/08 06:23:35;;;;;;;9.33;5.87;;;;;;;;;;4965888;28;20312;-84
2023/10/08 06:26:05;;;;;;;9.93;6.30;;;;;;;;;;4989505;28;20241;-84
2023/10/08 06:28:36;;;;;;;7.03;5.50;;;;;;;;;;4991189;28;20246;-84
2023/10/08 06:31:15;;;;;;;6.80;6.10;;;;;;;;;;4957933;28;20302;-85
2023/10/08 06:33:44;;;;;;;9.70;6.43;;;;;;;;;;4980228;28;20252;-84
2023/10/08 06:38:43;;;;;;;7.93;6.47;;;;;;;;;;4999119;28;20224;-85
2023/10/08 06:41:17;;;;;;;6.67;5.73;;;;;;;;;;4994730;28;20301;-83
2023/10/08 06:43:51;;;;;;;11.53;5.97;;;;;;;;;;5000038;28;20233;-84
2023/10/08 06:46:18;;;;;;;9.87;5.47;;;;;;;;;;4986037;28;20825;-85
2023/10/08 06:48:49;;;;;;;7.33;5.53;;;;;;;;;;4949361;28;20222;-84
2023/10/08 06:51:17;;;;;;;6.13;5.07;;;;;;;;;;4989313;28;20285;-84
2023/10/08 06:53:50;;;;;;;9.10;5.20;;;;;;;;;;4961737;28;20233;-83
2023/10/08 06:56:16;;;;;;;9.10;5.67;;;;;;;;;;4987037;28;20222;-83
2023/10/08 06:58:52;;;;;;;8.30;4.67;;;;;;;;;;4963318;28;20245;-84
2023/10/08 07:01:38;;;;;;;5.90;4.60;;;;;;;;;;4995922;28;20217;-83
2023/10/08 07:04:06;;;;;;;8.07;5.60;;;;;;;;;;4988795;28;20229;-83
2023/10/08 07:06:33;;;;;;;5.27;4.77;;;;;;;;;;4987521;28;20220;-84
2023/10/08 07:09:13;;;;;;;7.87;4.63;;;;;;;;;;5011477;28;20259;-82
2023/10/08 07:11:44;;;;;;;8.37;4.90;;;;;;;;;;4978027;28;20228;-84
2023/10/08 07:14:13;;;;;;;8.63;4.27;;;;;;;;;;4969327;28;20261;-84
2023/10/08 07:16:42;;;;;;;6.47;4.00;;;;;;;;;;4991217;28;20233;-84
2023/10/08 07:19:17;;;;;;;8.03;4.40;;;;;;;;;;4984304;28;20232;-82
2023/10/08 07:21:45;;;;;;;9.63;4.10;;;;;;;;;;4960618;28;20663;-84
2023/10/08 07:24:17;;;;;;;6.13;3.80;;;;;;;;;;4991934;28;20236;-84
2023/10/08 07:26:49;;;;;;;7.83;3.80;;;;;;;;;;4992183;28;20237;-83
2023/10/08 07:29:21;;;;;;;6.03;3.30;;;;;;;;;;4974283;28;20284;-83
2023/10/08 07:31:52;;;;;;;7.60;3.07;;;;;;;;;;4986643;28;20313;-84
2023/10/08 07:36:54;;;;;;;4.60;2.80;;;;;;;;;;4984180;28;20240;-84
2023/10/08 07:39:33;;;;;;;;;;;;;;;;;;;;;
2023/10/08 07:41:58;;;;;;;10.83;3.30;;;;;;;;;;4992501;28;20225;-83
2023/10/08 07:44:28;;;;;;;4.97;2.87;;;;;;;;;;4985739;28;20457;-84
2023/10/08 07:46:55;;;;;;;3.70;2.27;;;;;;;;;;4953844;28;20245;-84
2023/10/08 07:49:25;;;;;;;3.87;2.20;;;;;;;;;;4972797;28;20228;-83
2023/10/08 07:51:51;;;;;;;4.47;2.70;;;;;;;;;;4986693;28;20236;-84
2023/10/08 07:54:27;;;;;;;3.77;2.03;;;;;;;;;;4976928;28;20210;-84
2023/10/08 07:57:08;;;;;;;3.23;2.00;;;;;;;;;;5000992;28;20228;-85
2023/10/08 07:59:47;;;;;;;5.93;2.00;;;;;;;;;;4985583;28;20225;-78
2023/10/08 08:02:17;;;;;;;2.77;1.83;;;;;;;;;;4935470;28;20313;-77
2023/10/08 08:04:50;;;;;;;3.77;2.00;;;;;;;;;;4970169;28;20228;-76
2023/10/08 08:07:16;;;;;;;5.37;2.17;;;;;;;;;;4980710;28;20303;-78
2023/10/08 08:09:50;;;;;;;9.27;2.30;;;;;;;;;;4958124;28;20934;-77
2023/10/08 08:12:18;;;;;;;8.02;1.80;;;;;;;;;;4988316;28;20695;-78
2023/10/08 08:14:44;;;;;;;4.80;1.83;;;;;;;;;;4976922;28;20684;-78
2023/10/08 08:17:16;;;;;;;6.80;1.70;;;;;;;;;;5001855;28;20217;-76
2023/10/08 08:19:46;;;;;;;5.63;1.60;;;;;;;;;;4971554;28;20690;-76
2023/10/08 08:22:15;;;;;;;3.73;1.30;;;;;;;;;;4988704;28;20279;-77
2023/10/08 08:24:44;;;;;;;4.28;1.30;;;;;;;;;;4984032;28;20589;-77
2023/10/08 08:27:31;;;;;;;3.23;1.50;;;;;;;;;;4998914;28;20345;-78
2023/10/08 08:30:01;;;;;;;5.18;1.70;;;;;;;;;;4993781;28;20788;-77
2023/10/08 08:32:34;;;;;;;3.33;1.47;;;;;;;;;;4984792;28;20226;-79
2023/10/08 08:34:59;;;;;;;4.30;1.30;;;;;;;;;;4976959;28;20259;-79
2023/10/08 08:37:30;;;;;;;5.63;1.50;;;;;;;;;;4986331;28;20559;-79
2023/10/08 08:39:59;;;;;;;4.03;1.10;;;;;;;;;;4977255;28;20294;-77
2023/10/08 08:42:32;;;;;;;2.83;1.30;;;;;;;;;;4985671;28;20706;-78
2023/10/08 08:44:57;;;;;;;5.57;1.40;;;;;;;;;;4994568;28;20320;-78
2023/10/08 08:47:25;;;;;;;2.20;1.10;;;;;;;;;;4976045;28;20232;-78
2023/10/08 08:49:56;;;;;;;5.07;1.20;;;;;;;;;;4973979;28;20360;-79
2023/10/08 08:52:22;;;;;;;2.63;1.30;;;;;;;;;;4977628;28;20248;-78
2023/10/08 08:54:48;;;;;;;4.53;1.20;;;;;;;;;;4977448;28;20225;-79
2023/10/08 08:57:13;;;;;;;2.77;1.37;;;;;;;;;;4967393;28;20222;-80
2023/10/08 08:59:54;;;;;;;2.20;1.17;;;;;;;;;;4971357;28;20684;-80
2023/10/08 09:02:19;;;;;;;4.37;1.30;;;;;;;;;;4976137;28;20265;-79
2023/10/08 09:04:47;;;;;;;5.07;1.20;;;;;;;;;;4982423;28;20241;-80
2023/10/08 09:07:15;;;;;;;5.07;1.20;;;;;;;;;;4967499;28;20237;-81
2023/10/08 09:09:41;;;;;;;4.90;1.13;;;;;;;;;;4982396;28;20605;-79
2023/10/08 09:12:10;;;;;;;4.97;1.30;;;;;;;;;;4974893;28;20226;-79
2023/10/08 09:14:36;;;;;;;4.83;1.40;;;;;;;;;;4968733;28;20218;-79
2023/10/08 09:17:04;;;;;;;3.37;1.27;;;;;;;;;;5002602;28;20245;-77
2023/10/08 09:19:40;;;;;;;2.43;1.37;;;;;;;;;;4981913;28;20225;-78
2023/10/08 09:22:12;;;;;;;3.57;1.17;;;;;;;;;;4969969;28;20238;-79
2023/10/08 09:24:40;;;;;;;3.37;1.10;;;;;;;;;;4991514;28;20315;-80
2023/10/08 09:27:13;;;;;;;4.33;1.47;;;;;;;;;;4993432;28;20303;-80
2023/10/08 09:29:39;;;;;;;2.20;1.10;;;;;;;;;;5004019;28;20717;-79
2023/10/08 09:32:06;;;;;;;4.67;1.40;;;;;;;;;;5002562;28;20300;-80
2023/10/08 09:34:31;;;;;;;4.97;1.00;;;;;;;;;;4998372;28;21002;-79
2023/10/08 09:37:00;;;;;;;2.20;1.10;;;;;;;;;;4983562;28;20261;-78
2023/10/08 09:39:33;;;;;;;2.43;1.10;;;;;;;;;;4974571;28;20313;-81
2023/10/08 09:42:02;;;;;;;2.17;1.03;;;;;;;;;;4987798;28;20297;-78
2023/10/08 09:44:30;;;;;;;4.37;1.30;;;;;;;;;;4997079;28;20283;-81
2023/10/08 09:47:10;;;;;;;3.80;1.10;;;;;;;;;;4978185;28;20224;-79
2023/10/08 09:49:42;;;;;;;2.67;1.20;;;;;;;;;;4964404;28;20285;-79
2023/10/08 09:52:12;;;;;;;7.10;1.20;;;;;;;;;;4998604;28;20229;-79
2023/10/08 09:54:43;;;;;;;3.47;1.50;;;;;;;;;;4975006;28;20222;-78
2023/10/08 09:57:10;;;;;;;6.27;1.30;;;;;;;;;;4971392;28;20303;-79
2023/10/08 09:59:35;;;;;;;3.53;1.17;;;;;;;;;;4991672;28;20217;-78
2023/10/08 10:02:02;;;;;;;2.38;1.10;;;;;;;;;;4991503;28;20221;-79
2023/10/08 10:04:32;;;;;;;2.92;1.17;;;;;;;;;;4989365;28;20346;-78
2023/10/08 10:07:07;;;;;;;8.93;1.20;;;;;;;;;;4985702;28;20886;-79
2023/10/08 10:09:37;;;;;;;3.60;1.45;;;;;;;;;;4980908;28;20356;-80
2023/10/08 10:12:09;;;;;;;3.17;1.00;;;;;;;;;;4989995;28;20217;-78
2023/10/08 10:14:47;;;;;;;3.38;1.23;;;;;;;;;;4987872;28;20585;-80
2023/10/08 10:17:23;;;;;;;5.53;1.30;;;;;;;;;;5002246;28;20225;-80
2023/10/08 10:20:05;;;;;;;3.93;1.30;;;;;;;;;;4971653;28;20280;-80
2023/10/08 10:22:34;;;;;;;3.17;1.30;;;;;;;;;;4965695;28;20703;-79
2023/10/08 10:25:17;;;;;;;4.43;1.35;;;;;;;;;;4967634;28;20222;-79
2023/10/08 10:28:20;;;;;;;3.88;0.95;;;;;;;;;;4996135;28;20733;-80
2023/10/08 10:30:47;;;;;;;6.78;1.52;;;;;;;;;;5001786;28;20225;-80
2023/10/08 10:33:16;;;;;;;1.65;0.85;;;;;;;;;;4987359;28;20229;-80
2023/10/08 10:35:50;;;;;;;2.63;1.25;;;;;;;;;;4987448;28;20304;-80
2023/10/08 10:38:20;;;;;;;4.35;1.20;;;;;;;;;;4967929;28;20221;-80
2023/10/08 10:40:56;;;;;;;2.57;1.20;;;;;;;;;;4972690;28;20231;-80
2023/10/08 10:43:34;;;;;;;5.18;1.38;;;;;;;;;;4980625;28;20607;-80
2023/10/08 10:49:16;;;;;;;5.28;1.17;;;;;;;;;;4995069;28;20235;-80
2023/10/08 10:51:42;;;;;;;1.73;0.88;;;;;;;;;;4974735;28;20221;-80
2023/10/08 10:54:09;;;;;;;1.92;1.20;;;;;;;;;;4981337;28;20232;-79
2023/10/08 10:56:45;;;;;;;2.47;1.02;;;;;;;;;;5004053;28;20213;-81
2023/10/08 10:59:18;;;;;;;1.65;1.00;;;;;;;;;;4978590;28;20251;-80
2023/10/08 11:01:54;;;;;;;5.10;0.85;;;;;;;;;;4980408;28;20677;-79
2023/10/08 11:04:28;;;;;;;2.20;0.93;;;;;;;;;;4988752;28;20248;-86
2023/10/08 11:07:00;;;;;;;3.10;1.30;;;;;;;;;;5009474;28;20299;-85
2023/10/08 11:09:38;;;;;;;2.95;1.10;;;;;;;;;;4961995;28;20225;-85
2023/10/08 11:12:14;;;;;;;1.98;0.85;;;;;;;;;;4996599;28;20271;-86
2023/10/08 11:14:46;;;;;;;3.95;1.13;;;;;;;;;;4980145;28;20217;-84
2023/10/08 11:17:22;;;;;;;1.27;0.70;;;;;;;;;;4981893;28;20233;-86
2023/10/08 11:19:48;;;;;;;2.00;0.90;;;;;;;;;;4994021;28;20268;-86
2023/10/08 11:22:16;;;;;;;1.95;1.13;;;;;;;;;;4963021;28;20238;-83
2023/10/08 11:24:48;;;;;;;2.63;1.05;;;;;;;;;;4976095;28;20240;-84
2023/10/08 11:27:17;;;;;;;1.77;1.00;;;;;;;;;;4974406;28;20229;-85
2023/10/08 11:29:43;;;;;;;2.65;1.10;;;;;;;;;;4988981;28;20236;-83
2023/10/08 11:32:17;;;;;;;2.08;0.98;;;;;;;;;;4996888;28;20305;-86
2023/10/08 11:34:49;;;;;;;3.58;0.93;;;;;;;;;;4968264;28;20321;-86
2023/10/08 11:37:33;;;;;;;1.42;0.88;;;;;;;;;;4993416;28;20264;-83
2023/10/08 11:40:15;;;;;;;1.67;0.77;;;;;;;;;;4993919;28;20587;-83
2023/10/08 11:42:43;;;;;;;0.75;0.73;;;;;;;;;;4986270;28;20264;-82
2023/10/08 11:45:26;;;;;;;1.45;0.77;;;;;;;;;;4994586;28;20217;-84
2023/10/08 11:47:57;;;;;;;1.42;0.73;;;;;;;;;;4972872;28;20222;-82
2023/10/08 11:50:30;;;;;;;2.83;1.05;;;;;;;;;;4988148;28;20320;-83
2023/10/08 11:53:03;;;;;;;2.88;1.17;;;;;;;;;;4978224;28;20252;-83
2023/10/08 11:55:35;;;;;;;3.78;1.33;;;;;;;;;;4998260;28;20280;-85
2023/10/08 11:58:09;;;;;;;3.00;1.20;;;;;;;;;;4997675;28;20294;-85
2023/10/08 12:00:52;;;;;;;2.42;0.90;;;;;;;;;;4963927;28;20216;-81
2023/10/08 12:03:18;;;;;;;2.00;1.00;;;;;;;;;;5011157;28;20241;-84
2023/10/08 12:05:52;;;;;;;6.05;1.00;;;;;;;;;;4968993;28;20233;-85
2023/10/08 12:08:20;;;;;;;2.88;0.85;;;;;;;;;;4961381;28;20234;-84
2023/10/08 12:10:53;;;;;;;2.40;1.00;;;;;;;;;;4987590;28;20209;-86
2023/10/08 12:13:24;;;;;;;2.88;1.05;;;;;;;;;;4979734;28;20226;-85
2023/10/08 12:16:05;;;;;;;2.05;0.95;;;;;;;;;;4966854;28;20309;-86
2023/10/08 12:18:31;;;;;;;1.88;0.90;;;;;;;;;;4953759;28;20678;-86
2023/10/08 12:20:56;;;;;;;3.78;1.25;;;;;;;;;;4970806;28;20248;-85
2023/10/08 12:23:29;;;;;;;3.20;1.00;;;;;;;;;;4999440;28;20232;-82
2023/10/08 12:25:59;;;;;;;3.30;1.08;;;;;;;;;;4983456;28;20265;-85
2023/10/08 12:28:30;;;;;;;2.05;1.08;;;;;;;;;;4977038;28;20494;-85
2023/10/08 12:30:58;;;;;;;2.92;1.17;;;;;;;;;;4974765;28;20226;-85
2023/10/08 12:33:24;;;;;;;4.15;1.10;;;;;;;;;;4991121;28;20344;-84
2023/10/08 12:35:58;;;;;;;1.65;1.17;;;;;;;;;;4960460;28;20629;-85
2023/10/08 12:38:27;;;;;;;1.15;0.80;;;;;;;;;;4960824;28;20884;-85
2023/10/08 12:40:54;;;;;;;2.25;1.20;;;;;;;;;;4973046;28;20229;-85
2023/10/08 12:43:20;;;;;;;3.55;1.02;;;;;;;;;;4981010;28;20236;-83
2023/10/08 12:45:52;;;;;;;1.48;0.90;;;;;;;;;;4979787;28;20225;-84
2023/10/08 12:48:27;;;;;;;2.42;1.05;;;;;;;;;;4972123;28;20226;-83
2023/10/08 12:50:59;;;;;;;1.85;1.05;;;;;;;;;;4976282;28;20248;-84
2023/10/08 12:53:36;;;;;;;1.73;0.98;;;;;;;;;;4973884;28;20225;-84
2023/10/08 12:56:21;;;;;;;1.50;1.17;;;;;;;;;;4978095;28;20229;-84
2023/10/08 12:58:49;;;;;;;1.30;0.80;;;;;;;;;;4986732;28;20222;-81
2023/10/08 13:01:17;;;;;;;1.77;0.80;;;;;;;;;;4975460;28;20275;-83
2023/10/08 13:03:49;;;;;;;2.88;1.20;;;;;;;;;;4996971;28;20252;-81
2023/10/08 13:06:28;;;;;;;3.33;1.20;;;;;;;;;;4975034;28;20274;-82
2023/10/08 13:08:54;;;;;;;1.83;1.00;;;;;;;;;;4990772;28;20237;-81
2023/10/08 13:11:22;;;;;;;1.85;0.88;;;;;;;;;;5000840;28;20213;-84
2023/10/08 13:13:56;;;;;;;2.28;0.70;;;;;;;;;;4986941;28;20213;-83
2023/10/08 13:16:24;;;;;;;3.60;1.08;;;;;;;;;;4970214;28;20699;-84
2023/10/08 13:19:03;;;;;;;1.40;0.80;;;;;;;;;;4980815;28;20248;-81
2023/10/08 13:21:32;;;;;;;1.77;0.77;;;;;;;;;;5020688;28;20230;-81
2023/10/08 13:23:59;;;;;;;2.50;1.20;;;;;;;;;;4982583;28;20240;-82
2023/10/08 13:26:31;;;;;;;1.30;0.95;;;;;;;;;;4991253;28;20272;-80
2023/10/08 13:28:58;;;;;;;2.95;1.00;;;;;;;;;;4994178;28;20637;-85
2023/10/08 13:31:26;;;;;;;2.97;1.00;;;;;;;;;;4988156;28;20714;-85
2023/10/08 13:33:56;;;;;;;5.47;1.25;;;;;;;;;;4963027;28;20240;-84
2023/10/08 13:36:26;;;;;;;3.17;1.27;;;;;;;;;;4998364;28;20267;-85
2023/10/08 13:38:52;;;;;;;5.05;1.92;;;;;;;;;;4979346;28;20304;-86
2023/10/08 13:41:20;;;;;;;2.80;2.00;;;;;;;;;;4999015;28;20264;-86
2023/10/08 13:43:46;;;;;;;2.22;1.00;;;;;;;;;;5013372;28;20225;-82
2023/10/08 13:46:17;;;;;;;2.03;1.25;;;;;;;;;;4979061;28;20217;-85
2023/10/08 13:48:48;;;;;;;1.65;0.90;;;;;;;;;;4954516;28;20715;-85
2023/10/08 13:51:20;;;;;;;8.05;1.30;;;;;;;;;;4980569;28;20214;-86
2023/10/08 13:53:52;;;;;;;2.25;1.38;;;;;;;;;;4976280;28;20226;-86
2023/10/08 13:56:24;;;;;;;5.15;1.40;;;;;;;;;;4976238;28;20229;-85
2023/10/08 13:58:51;;;;;;;2.33;1.13;;;;;;;;;;4985730;28;20284;-82
2023/10/08 14:01:20;;;;;;;2.05;1.30;;;;;;;;;;4985079;28;20611;-81
2023/10/08 14:03:47;;;;;;;2.30;1.10;;;;;;;;;;4995352;28;20292;-84
2023/10/08 14:06:13;;;;;;;1.75;1.05;;;;;;;;;;4983639;28;20621;-85
2023/10/08 14:08:39;;;;;;;1.85;0.95;;;;;;;;;;4973885;28;20220;-87
2023/10/08 14:11:07;;;;;;;2.03;1.30;;;;;;;;;;4950137;28;20697;-86
2023/10/08 14:13:37;;;;;;;3.00;1.10;;;;;;;;;;4956061;28;20236;-85
2023/10/08 14:16:08;;;;;;;3.97;2.28;;;;;;;;;;4974174;28;20660;-87
2023/10/08 14:18:40;;;;;;;3.13;1.33;;;;;;;;;;4966673;28;20229;-86
2023/10/08 14:21:11;;;;;;;5.90;3.53;;;;;;;;;;4977814;28;20236;-86
2023/10/08 14:23:39;;;;;;;2.60;1.90;;;;;;;;;;4980424;28;20458;-86
2023/10/08 14:26:08;;;;;;;8.05;4.57;;;;;;;;;;4983155;28;20221;-86
2023/10/08 14:28:40;;;;;;;3.58;2.30;;;;;;;;;;4962053;28;20303;-85
2023/10/08 14:31:15;;;;;;;7.47;2.10;;;;;;;;;;4988718;28;20281;-86
2023/10/08 14:33:43;;;;;;;2.80;1.30;;;;;;;;;;4981054;28;20248;-86
2023/10/08 14:44:22;;;;;;;3.80;1.15;;;;;;;;;;4977038;28;20228;-86
2023/10/08 14:46:50;;;;;;;3.03;0.98;;;;;;;;;;4963759;28;20683;-87
2023/10/08 14:49:16;;;;;;;2.65;1.13;;;;;;;;;;4979364;28;20222;-87
2023/10/08 14:51:43;;;;;;;2.30;0.88;;;;;;;;;;4976182;28;20229;-85
2023/10/08 14:54:08;;;;;;;3.15;1.45;;;;;;;;;;4949608;28;20316;-85
2023/10/08 14:56:38;;;;;;;2.40;1.00;;;;;;;;;;4983074;28;20225;-84
2023/10/08 14:59:04;;;;;;;4.30;1.10;;;;;;;;;;4999244;28;20253;-84
2023/10/08 15:01:33;;;;;;;3.13;1.20;;;;;;;;;;4985995;28;20219;-85
2023/10/08 15:04:03;;;;;;;3.88;1.00;;;;;;;;;;4971248;28;20250;-86
2023/10/08 15:06:34;;;;;;;2.78;1.05;;;;;;;;;;4981784;28;20308;-83
2023/10/08 15:09:03;;;;;;;1.77;1.00;;;;;;;;;;4959007;28;20267;-81
2023/10/08 15:11:30;;;;;;;2.38;1.27;;;;;;;;;;4992157;28;20241;-84
2023/10/08 15:13:56;;;;;;;2.45;0.80;;;;;;;;;;4970590;28;20229;-82
2023/10/08 15:16:23;;;;;;;3.67;1.10;;;;;;;;;;4983234;28;20436;-82
2023/10/08 15:18:53;;;;;;;1.58;0.98;;;;;;;;;;4977253;28;20249;-82
2023/10/08 15:21:24;;;;;;;2.30;1.13;;;;;;;;;;4968617;28;20381;-86
2023/10/08 15:23:51;;;;;;;2.58;1.10;;;;;;;;;;4967487;28;20229;-84
2023/10/08 15:26:19;;;;;;;2.88;1.10;;;;;;;;;;4961613;28;20341;-85
2023/10/08 15:28:47;;;;;;;2.47;1.35;;;;;;;;;;4963346;28;20320;-86
2023/10/08 15:31:13;;;;;;;2.70;1.20;;;;;;;;;;4951931;28;20236;-84
2023/10/08 15:33:41;;;;;;;2.03;0.90;;;;;;;;;;4968527;28;20615;-85
2023/10/08 15:36:07;;;;;;;4.03;1.23;;;;;;;;;;4976998;28;20221;-85
2023/10/08 15:38:35;;;;;;;1.83;1.08;;;;;;;;;;4958464;28;20226;-85
2023/10/08 15:41:03;;;;;;;3.67;1.10;;;;;;;;;;4982828;28;20603;-85
2023/10/08 15:43:34;;;;;;;4.05;1.30;;;;;;;;;;4960064;28;20230;-85
2023/10/08 15:46:01;;;;;;;2.53;1.30;;;;;;;;;;4985215;28;20224;-86
2023/10/08 15:48:29;;;;;;;1.55;1.00;;;;;;;;;;4992461;28;20217;-84
2023/10/08 15:50:57;;;;;;;3.65;1.55;;;;;;;;;;4982244;28;20228;-84
2023/10/08 15:53:25;;;;;;;2.67;1.38;;;;;;;;;;4967639;28;22623;-83
2023/10/08 15:55:51;;;;;;;2.75;1.30;;;;;;;;;;4961952;28;20210;-82
2023/10/08 15:58:19;;;;;;;2.22;1.38;;;;;;;;;;4980123;28;20214;-84
2023/10/08 16:00:45;;;;;;;3.17;1.40;;;;;;;;;;5003688;28;20272;-83
2023/10/08 16:03:11;;;;;;;2.45;1.48;;;;;;;;;;4975028;28;20248;-86
2023/10/08 16:05:37;;;;;;;3.28;1.63;;;;;;;;;;4980494;28;20237;-84
2023/10/08 16:08:03;;;;;;;4.03;1.58;;;;;;;;;;4947047;28;20218;-86
2023/10/08 16:10:28;;;;;;;3.42;1.58;;;;;;;;;;4976096;28;20252;-86
2023/10/08 16:12:56;;;;;;;3.88;2.00;;;;;;;;;;4997551;28;20674;-85
2023/10/08 16:15:27;;;;;;;3.70;1.73;;;;;;;;;;4953523;28;20225;-85
2023/10/08 16:17:53;;;;;;;3.00;2.30;;;;;;;;;;4957567;28;20283;-87
2023/10/08 16:20:21;;;;;;;3.67;2.28;;;;;;;;;;4976334;28;20217;-86
2023/10/08 16:22:52;;;;;;;2.67;2.20;;;;;;;;;;4944768;28;21152;-84
2023/10/08 16:25:18;;;;;;;2.63;2.03;;;;;;;;;;4979592;28;20227;-84
2023/10/08 16:27:48;;;;;;;3.00;2.10;;;;;;;;;;4958606;28;20222;-85
2023/10/08 16:30:22;;;;;;;3.17;1.55;;;;;;;;;;4971854;28;20228;-84